Casper, WY

5:35 PM MDT on August 29, 2016 (GMT -0600)
RAWS | | Change Station

Elev 7740 ft 42.71 °N, 106.35 °W | Updated 43 minutes ago

Clear
Clear
74.0 °F
Feels Like 74.0 °F
N
8.0
Wind Variable Wind from East
Gusts 0.0 mph

Today
High -- | Low -- °F
--% Chance of Precip.
Yesterday
High -- | Low -- °F
Precip. -- in
Pressure 30.09 in
Visibility 10.0 miles
Clouds Clear
Dew Point 33.0 °F
Humidity 22%
Rainfall in
Snow Depth Not available.
6:27 AM 7:43 PM
Waning Crescent, 6% visible
METAR KCPR 292253Z 11013KT 10SM CLR 29/01 A3027 RMK AO2 SLP187 T02940006
Pressure 30.09 in
Visibility 10.0 miles
Clouds Clear
Dew Point 33.0 °F
Humidity 22%
Rainfall in
Snow Depth Not available.
6:27 AM 7:43 PM
Waning Crescent, 6% visible
METAR KCPR 292253Z 11013KT 10SM CLR 29/01 A3027 RMK AO2 SLP187 T02940006

10-Day Weather Forecast

Almanac

Astronomy

Aug. 29, 2016 Rise Set
Actual Time
Civil Twilight
Nautical Twilight
Astronomical Twilight
Moon
Length of Visible Light
Length of Day
Tomorrow will be .
, % of the Moon is Illuminated

Today's Extremes

State Highs State Lows

Community

WunderPhotos

Upload Photos

1,935,695 photos uploaded!

WunderBlog® & News

Nearby

Air Quality

  Air Quality AQ Index Pollutant
Not available.

Snow Depth

Station Depth Elevation

Earthquake Activity

City Distance Mag. Time & Date
Minimum magnitude displayed is 2.5.

Coastal Water Temperatures

Place Temperature

Stations

Nearby Weather Stations

Station Location Temp. Windchill Dew Point Humidity Wind Precip. Elev Updated Type
                   

Watches & Warnings

There are currently no watches in effect.